Terminal Aerodrome Forecast
Issued by NWS

Home | Current Version | Previous Version | Text Only | Print | Product List | Glossary On
Versions: 1 2 3 4 5 6 7 8 9 10 11 12 13 14 15 16 17 18 19 20 21 22 23 24 25 26 27
000
FTAK31 PAFA 232338
TAFAMC
TAF
PAMC 232338Z 2400/2424 24005KT P6SM VCSH SCT015 BKN025 OVC035
     FM240300 24003KT P6SM VCSH SCT025 BKN035 OVC050
     FM241300 VRB03KT P6SM VCFG FEW004 BKN050
     FM242000 20003KT P6SM BKN050=

USA.gov is the U.S. government's official web portal to all federal, state and local government web resources and services.